Time;durP1;ratioP1;P1;durP2;ratioP2;P2;SDS_P1;SDS_P2;PMS_P1;PMS_P2;Temp;Humidity;BMP_temperature;BMP_pressure;BME280_temperature;BME280_humidity;BME280_pressure;Samples;Min_cycle;Max_cycle;Signal;HPM_P1;HPM_P2
2023/09/01 00:16:26;;;;;;;4.03;2.37;;;15.30;99.90;;;;;;5032171;28;20381;-72
2023/09/01 00:18:52;;;;;;;3.47;2.13;;;15.30;99.90;;;;;;5032306;28;20848;-72
2023/09/01 00:21:17;;;;;;;3.20;2.83;;;15.30;99.90;;;;;;5032106;28;20453;-73
2023/09/01 00:23:43;;;;;;;2.33;2.13;;;15.30;99.90;;;;;;5031976;28;20186;-73
2023/09/01 00:26:08;;;;;;;3.57;2.40;;;15.30;99.90;;;;;;5031949;28;20180;-73
2023/09/01 00:28:34;;;;;;;3.10;2.30;;;15.30;99.90;;;;;;5030746;28;20171;-72
2023/09/01 00:31:00;;;;;;;2.77;2.40;;;15.30;99.90;;;;;;5032217;28;20661;-73
2023/09/01 00:33:30;;;;;;;2.73;2.17;;;15.30;99.90;;;;;;5047800;28;20254;-73
2023/09/01 00:35:57;;;;;;;1.90;1.80;;;15.30;99.90;;;;;;5051856;28;20442;-73
2023/09/01 00:38:24;;;;;;;2.83;2.13;;;15.40;99.90;;;;;;5044863;28;20436;-72
2023/09/01 00:40:50;;;;;;;6.40;2.40;;;15.40;99.90;;;;;;5046556;28;20544;-73
2023/09/01 00:43:17;;;;;;;3.30;2.13;;;15.50;99.90;;;;;;5051797;28;20989;-73
2023/09/01 00:45:42;;;;;;;3.37;2.50;;;15.60;99.90;;;;;;5051688;28;20163;-72
2023/09/01 00:48:09;;;;;;;4.40;2.33;;;15.60;99.90;;;;;;5051951;28;20791;-73
2023/09/01 00:50:36;;;;;;;2.23;1.73;;;15.70;99.90;;;;;;5051873;28;20189;-72
2023/09/01 00:53:04;;;;;;;4.00;2.30;;;15.70;99.90;;;;;;5051853;28;20453;-74
2023/09/01 00:55:31;;;;;;;2.90;1.93;;;15.80;99.90;;;;;;5047873;28;20418;-73
2023/09/01 00:57:56;;;;;;;4.60;2.20;;;15.80;99.90;;;;;;5031875;28;20437;-72
2023/09/01 01:00:22;;;;;;;2.97;2.23;;;15.90;99.90;;;;;;5031718;28;20766;-73
2023/09/01 01:02:48;;;;;;;5.10;2.10;;;15.90;99.90;;;;;;5031808;28;20198;-73
2023/09/01 01:05:15;;;;;;;6.87;2.20;;;16.00;99.90;;;;;;5031562;28;20163;-73
2023/09/01 01:07:58;;;;;;;3.30;1.93;;;16.00;99.90;;;;;;5031775;28;20460;-73
2023/09/01 01:10:34;;;;;;;2.10;1.57;;;16.00;99.90;;;;;;5031829;28;20410;-73
2023/09/01 01:13:07;;;;;;;5.10;2.67;;;16.10;99.90;;;;;;5031801;28;20422;-73
2023/09/01 01:15:35;;;;;;;2.67;2.47;;;16.10;99.90;;;;;;5030252;28;21124;-73
2023/09/01 01:18:05;;;;;;;4.33;2.80;;;16.10;99.90;;;;;;5031810;28;20459;-72
2023/09/01 01:20:33;;;;;;;8.60;2.80;;;15.90;99.90;;;;;;5030269;28;20410;-73
2023/09/01 01:23:11;;;;;;;5.23;2.87;;;15.80;99.90;;;;;;5031649;28;20430;-73
2023/09/01 01:25:43;;;;;;;4.17;2.27;;;15.90;99.90;;;;;;5031170;28;20410;-73
2023/09/01 01:28:09;;;;;;;2.23;2.03;;;15.90;99.90;;;;;;5031626;28;20782;-73
2023/09/01 01:30:36;;;;;;;2.73;2.27;;;15.90;99.90;;;;;;5031618;28;20399;-73
2023/09/01 01:33:02;;;;;;;2.20;2.00;;;15.90;99.90;;;;;;5043324;28;20194;-73
2023/09/01 01:35:51;;;;;;;3.17;2.30;;;15.90;99.90;;;;;;5051105;28;20405;-72
2023/09/01 01:38:28;;;;;;;3.97;2.73;;;16.00;99.90;;;;;;5042621;28;20417;-73
2023/09/01 01:41:04;;;;;;;3.23;2.30;;;16.00;99.90;;;;;;5046460;28;20461;-73
2023/09/01 01:43:30;;;;;;;2.43;2.23;;;16.00;99.90;;;;;;5051168;28;20464;-73
2023/09/01 01:45:57;;;;;;;3.23;2.10;;;16.00;99.90;;;;;;5051022;28;20451;-72
2023/09/01 01:48:23;;;;;;;3.50;2.33;;;16.00;99.90;;;;;;5051345;28;20770;-73
2023/09/01 01:50:49;;;;;;;6.43;2.00;;;16.00;99.90;;;;;;5051235;28;20409;-73
2023/09/01 01:53:14;;;;;;;2.40;2.20;;;16.00;99.90;;;;;;5051275;28;20193;-72
2023/09/01 01:55:40;;;;;;;2.40;2.20;;;16.00;99.90;;;;;;5048149;28;20171;-73
2023/09/01 01:58:05;;;;;;;5.30;2.50;;;16.10;99.90;;;;;;5035029;28;20207;-74
2023/09/01 02:00:32;;;;;;;2.67;2.00;;;16.00;99.90;;;;;;5034873;28;20649;-73
2023/09/01 02:02:58;;;;;;;2.13;1.83;;;16.00;99.90;;;;;;5034847;28;20187;-73
2023/09/01 02:05:23;;;;;;;3.10;1.87;;;16.00;99.90;;;;;;5034574;28;20407;-73
2023/09/01 02:07:49;;;;;;;2.23;2.03;;;15.90;99.90;;;;;;5033252;28;20537;-72
2023/09/01 02:10:14;;;;;;;4.20;2.80;;;16.00;99.90;;;;;;5034777;28;20168;-72
2023/09/01 02:12:41;;;;;;;3.20;2.43;;;15.80;99.90;;;;;;5034477;28;20219;-73
2023/09/01 02:15:09;;;;;;;3.77;2.23;;;15.80;99.90;;;;;;5034464;28;20501;-72
2023/09/01 02:17:36;;;;;;;3.20;2.40;;;15.80;99.90;;;;;;5034355;28;20229;-74
2023/09/01 02:20:10;;;;;;;3.03;2.70;;;15.80;99.90;;;;;;5034543;28;20497;-73
2023/09/01 02:22:36;;;;;;;3.60;2.60;;;15.80;99.90;;;;;;5034446;28;20970;-73
2023/09/01 02:25:08;;;;;;;3.40;2.63;;;15.70;99.90;;;;;;5034375;28;20413;-73
2023/09/01 02:27:33;;;;;;;2.60;2.40;;;15.70;99.90;;;;;;5034304;28;20190;-73
2023/09/01 02:29:59;;;;;;;2.90;2.10;;;15.70;99.90;;;;;;5034422;28;20438;-71
2023/09/01 02:32:24;;;;;;;6.93;3.17;;;15.70;99.90;;;;;;5040512;28;20190;-73
2023/09/01 02:34:50;;;;;;;6.40;2.80;;;15.70;99.90;;;;;;5054359;28;20179;-73
2023/09/01 02:37:15;;;;;;;5.73;2.63;;;15.70;99.90;;;;;;5048287;28;20183;-73
2023/09/01 02:39:41;;;;;;;2.67;2.47;;;15.70;99.90;;;;;;5043358;28;20180;-73
2023/09/01 02:42:06;;;;;;;4.80;3.30;;;15.60;99.90;;;;;;5053927;28;20198;-73
2023/09/01 02:44:32;;;;;;;2.50;2.20;;;15.60;99.90;;;;;;5054012;28;20540;-73
2023/09/01 02:46:57;;;;;;;7.27;4.23;;;15.70;99.90;;;;;;5053770;28;20171;-72
2023/09/01 02:49:23;;;;;;;6.53;2.83;;;15.80;99.90;;;;;;5053914;28;20167;-73
2023/09/01 02:51:49;;;;;;;3.03;2.60;;;15.80;99.90;;;;;;5053953;28;20163;-74
2023/09/01 02:54:14;;;;;;;5.67;2.70;;;15.80;99.90;;;;;;5053760;28;20163;-73
2023/09/01 02:56:40;;;;;;;3.27;2.70;;;15.80;99.90;;;;;;5040211;28;20903;-72
2023/09/01 02:59:05;;;;;;;6.10;2.60;;;15.80;99.90;;;;;;5033874;28;20187;-74
2023/09/01 03:01:31;;;;;;;5.50;2.97;;;15.80;99.90;;;;;;5033866;28;20245;-74
2023/09/01 03:03:56;;;;;;;3.10;2.80;;;15.80;99.90;;;;;;5033624;28;20730;-74
2023/09/01 03:06:22;;;;;;;2.77;2.50;;;15.80;99.90;;;;;;5032589;28;20199;-73
2023/09/01 03:08:47;;;;;;;4.80;3.50;;;15.80;99.90;;;;;;5033475;28;20163;-74
2023/09/01 03:11:13;;;;;;;6.43;3.70;;;15.80;99.90;;;;;;5033724;28;20167;-74
2023/09/01 03:13:40;;;;;;;3.83;3.07;;;15.80;99.90;;;;;;5032217;28;20282;-73
2023/09/01 03:16:06;;;;;;;10.10;3.30;;;15.70;99.90;;;;;;5033250;28;20179;-72
2023/09/01 03:18:32;;;;;;;12.23;7.03;;;15.70;99.90;;;;;;5032762;28;20541;-72
2023/09/01 03:21:09;;;;;;;4.43;4.03;;;15.70;99.90;;;;;;5038982;28;20953;-72
2023/09/01 03:23:35;;;;;;;5.90;4.73;;;15.70;99.90;;;;;;5049370;28;20213;-72
2023/09/01 03:26:00;;;;;;;4.90;4.20;;;15.70;99.90;;;;;;5052906;28;20406;-73
2023/09/01 03:28:26;;;;;;;3.37;3.13;;;15.70;99.90;;;;;;5051947;28;20210;-73
2023/09/01 03:30:52;;;;;;;5.13;4.40;;;15.70;99.90;;;;;;5053209;28;20258;-73
2023/09/01 03:33:18;;;;;;;5.50;4.90;;;15.70;99.90;;;;;;5053058;28;20504;-73
2023/09/01 03:35:43;;;;;;;7.53;4.93;;;15.50;99.90;;;;;;5052683;28;20170;-73
2023/09/01 03:38:09;;;;;;;9.73;5.77;;;15.50;99.90;;;;;;5041964;28;20179;-72
2023/09/01 03:40:38;;;;;;;9.23;4.60;;;15.60;99.90;;;;;;5049483;28;20228;-73
2023/09/01 03:43:05;;;;;;;8.43;4.77;;;15.60;99.90;;;;;;5052818;28;20179;-72
2023/09/01 03:45:31;;;;;;;8.17;6.40;;;15.70;99.90;;;;;;5052423;28;20405;-72
2023/09/01 03:47:56;;;;;;;6.03;5.50;;;15.60;99.90;;;;;;5052828;28;20417;-74
2023/09/01 03:50:22;;;;;;;6.53;5.40;;;15.60;99.90;;;;;;5045869;28;20205;-73
2023/09/01 03:52:47;;;;;;;6.63;6.00;;;15.60;99.90;;;;;;5047521;28;20201;-72
2023/09/01 03:55:13;;;;;;;8.90;5.70;;;15.70;99.90;;;;;;5052366;28;21004;-73
2023/09/01 03:57:38;;;;;;;7.03;5.17;;;15.70;99.90;;;;;;5052719;28;20167;-73
2023/09/01 04:00:10;;;;;;;7.27;6.07;;;15.70;99.90;;;;;;5052578;28;20171;-73
2023/09/01 04:02:36;;;;;;;8.10;5.90;;;15.70;99.90;;;;;;5052492;28;20195;-73
2023/09/01 04:05:03;;;;;;;6.30;5.70;;;15.70;99.90;;;;;;5052101;28;20402;-72
2023/09/01 04:07:29;;;;;;;9.87;5.70;;;15.70;99.90;;;;;;5049015;28;20183;-73
2023/09/01 04:09:56;;;;;;;8.73;5.60;;;15.70;99.90;;;;;;5032497;28;20919;-73
2023/09/01 04:12:21;;;;;;;6.77;5.30;;;15.70;99.90;;;;;;5032423;28;20183;-72
2023/09/01 04:14:47;;;;;;;7.77;5.17;;;15.80;99.90;;;;;;5032453;28;20468;-73
2023/09/01 04:17:12;;;;;;;23.40;11.43;;;15.80;99.90;;;;;;5032298;28;20178;-73
2023/09/01 04:19:38;;;;;;;6.30;5.37;;;15.70;99.90;;;;;;5032541;28;20262;-72
2023/09/01 04:22:04;;;;;;;7.17;5.10;;;15.80;99.90;;;;;;5048497;28;20683;-71
2023/09/01 04:24:29;;;;;;;7.70;4.80;;;15.80;99.90;;;;;;5052201;28;20221;-71
2023/09/01 04:26:55;;;;;;;6.77;4.83;;;15.80;99.90;;;;;;5051802;28;20248;-73
2023/09/01 04:29:20;;;;;;;5.37;4.87;;;15.80;99.90;;;;;;5052216;28;20293;-73
2023/09/01 04:31:47;;;;;;;6.23;4.53;;;15.90;99.90;;;;;;5052161;28;20182;-72
2023/09/01 04:34:13;;;;;;;5.90;4.40;;;15.90;99.90;;;;;;5052043;28;20183;-73
2023/09/01 04:36:39;;;;;;;5.63;5.00;;;15.90;99.90;;;;;;5051703;28;20764;-71
2023/09/01 04:39:04;;;;;;;5.50;4.73;;;15.80;99.90;;;;;;5041567;28;20175;-72
2023/09/01 04:41:31;;;;;;;13.30;5.03;;;15.90;99.90;;;;;;5043503;28;20191;-72
2023/09/01 04:43:58;;;;;;;5.40;4.90;;;15.90;99.90;;;;;;5051701;28;20183;-72
2023/09/01 04:46:23;;;;;;;6.30;4.90;;;16.00;99.90;;;;;;5042447;28;20418;-72
2023/09/01 04:48:49;;;;;;;5.47;4.93;;;16.10;99.90;;;;;;5043055;28;20475;-71
2023/09/01 04:51:14;;;;;;;6.50;4.63;;;16.10;99.90;;;;;;5045540;28;20644;-73
2023/09/01 04:53:41;;;;;;;6.00;4.80;;;16.10;99.90;;;;;;5046838;28;20249;-72
2023/09/01 04:56:06;;;;;;;5.10;4.60;;;16.20;99.90;;;;;;5051475;28;20166;-71
2023/09/01 04:58:32;;;;;;;5.03;4.20;;;16.20;99.90;;;;;;5050493;28;20413;-73
2023/09/01 05:00:57;;;;;;;5.83;5.23;;;16.20;99.90;;;;;;5051693;28;20222;-72
2023/09/01 05:03:23;;;;;;;5.50;4.77;;;16.20;99.90;;;;;;5051719;28;20183;-71
2023/09/01 05:05:49;;;;;;;7.63;4.10;;;16.20;99.90;;;;;;5051362;28;20167;-72
2023/09/01 05:08:16;;;;;;;4.40;4.03;;;16.20;99.90;;;;;;5051891;28;20397;-72
2023/09/01 05:10:41;;;;;;;5.10;3.93;;;16.30;99.90;;;;;;5051783;28;20394;-71
2023/09/01 05:13:07;;;;;;;6.40;3.63;;;16.30;99.90;;;;;;5051577;28;20440;-73
2023/09/01 05:15:32;;;;;;;3.50;2.90;;;16.40;99.90;;;;;;5051323;28;20177;-72
2023/09/01 05:17:58;;;;;;;4.10;3.70;;;16.40;99.90;;;;;;5051473;28;20578;-73
2023/09/01 05:20:23;;;;;;;4.00;3.57;;;16.50;99.90;;;;;;5051568;28;20199;-72
2023/09/01 05:22:49;;;;;;;3.57;3.27;;;16.60;99.90;;;;;;5046023;28;20699;-73
2023/09/01 05:25:15;;;;;;;4.00;3.60;;;16.60;99.90;;;;;;5044725;28;20543;-73
2023/09/01 05:27:40;;;;;;;4.67;3.57;;;16.60;99.90;;;;;;5051364;28;20169;-73
2023/09/01 05:30:07;;;;;;;4.07;3.60;;;16.70;99.90;;;;;;5052365;28;20190;-72
2023/09/01 05:32:33;;;;;;;4.27;3.87;;;16.70;99.90;;;;;;5055331;28;20563;-72
2023/09/01 05:34:59;;;;;;;3.60;3.30;;;16.80;99.90;;;;;;5054019;28;20774;-73
2023/09/01 05:37:24;;;;;;;4.43;3.67;;;16.80;99.90;;;;;;5052170;28;20425;-73
2023/09/01 05:39:50;;;;;;;3.87;3.47;;;16.80;99.90;;;;;;5039135;28;20175;-72
2023/09/01 05:42:15;;;;;;;5.67;4.03;;;16.80;99.90;;;;;;5046643;28;20248;-73
2023/09/01 05:44:41;;;;;;;4.73;3.17;;;16.90;99.90;;;;;;5055015;28;20532;-73
2023/09/01 05:47:07;;;;;;;4.70;3.77;;;16.90;99.90;;;;;;5054765;28;20167;-72
2023/09/01 05:49:33;;;;;;;4.87;3.87;;;16.90;99.90;;;;;;5054951;28;20167;-72
2023/09/01 05:52:00;;;;;;;4.87;4.37;;;16.80;99.90;;;;;;5055052;28;20424;-72
2023/09/01 05:54:26;;;;;;;3.80;3.50;;;16.80;99.90;;;;;;5055046;28;20401;-73
2023/09/01 05:56:52;;;;;;;8.33;4.37;;;16.80;99.90;;;;;;5053525;28;20424;-72
2023/09/01 05:59:17;;;;;;;5.57;4.10;;;16.90;99.90;;;;;;5054945;28;20171;-73
2023/09/01 06:01:43;;;;;;;7.63;5.90;;;16.90;99.90;;;;;;5041550;28;20230;-73
2023/09/01 06:04:08;;;;;;;4.57;4.13;;;16.90;99.90;;;;;;5048182;28;20186;-72
2023/09/01 06:06:35;;;;;;;13.67;3.83;;;16.90;99.90;;;;;;5045979;28;20179;-73
2023/09/01 06:09:05;;;;;;;4.00;3.70;;;17.00;99.90;;;;;;5054694;28;20163;-74
2023/09/01 06:11:31;;;;;;;4.37;3.47;;;17.00;99.90;;;;;;5054750;28;20535;-73
2023/09/01 06:13:58;;;;;;;4.80;4.13;;;17.20;99.90;;;;;;5053239;28;20437;-73
2023/09/01 06:16:25;;;;;;;3.83;3.20;;;17.40;99.90;;;;;;5054399;28;20467;-74
2023/09/01 06:18:51;;;;;;;4.43;4.03;;;17.30;99.90;;;;;;5054669;28;20893;-72
2023/09/01 06:21:16;;;;;;;7.20;4.77;;;17.30;99.90;;;;;;5054600;28;20471;-74
2023/09/01 06:23:44;;;;;;;7.33;2.70;;;17.40;99.90;;;;;;5054370;28;20434;-73
2023/09/01 06:26:13;;;;;;;4.27;3.33;;;17.40;99.90;;;;;;5054409;28;20159;-74
2023/09/01 06:28:42;;;;;;;12.93;3.73;;;17.50;99.90;;;;;;5053161;28;20929;-73
2023/09/01 06:31:12;;;;;;;6.17;4.40;;;17.60;99.90;;;;;;5053234;28;20413;-74
2023/09/01 06:33:42;;;;;;;3.77;3.40;;;17.60;99.90;;;;;;5052891;28;20433;-74
2023/09/01 06:36:07;;;;;;;6.03;4.43;;;17.70;99.90;;;;;;5044897;28;20466;-73
2023/09/01 06:38:33;;;;;;;6.97;4.13;;;17.70;99.90;;;;;;5038560;28;20445;-72
2023/09/01 06:40:58;;;;;;;5.23;3.73;;;17.70;99.90;;;;;;5045569;28;20781;-73
2023/09/01 06:43:24;;;;;;;3.70;3.40;;;17.80;99.90;;;;;;5045657;28;20187;-73
2023/09/01 06:45:49;;;;;;;3.33;3.03;;;17.90;99.90;;;;;;5053753;28;20170;-72
2023/09/01 06:48:15;;;;;;;8.40;3.37;;;17.80;99.90;;;;;;5052643;28;20220;-73
2023/09/01 06:50:40;;;;;;;3.90;3.60;;;17.70;99.90;;;;;;5051554;28;20178;-73
2023/09/01 06:53:06;;;;;;;2.80;2.60;;;17.70;99.90;;;;;;5053917;28;20187;-72
2023/09/01 06:55:31;;;;;;;2.57;2.30;;;17.70;99.90;;;;;;5053624;28;20174;-72
2023/09/01 06:57:57;;;;;;;9.40;4.10;;;17.70;99.90;;;;;;5053905;28;20675;-71
2023/09/01 07:00:23;;;;;;;4.07;2.70;;;17.70;99.90;;;;;;5052424;28;20171;-71
2023/09/01 07:02:48;;;;;;;4.00;2.67;;;17.80;99.90;;;;;;5053642;28;20657;-72
2023/09/01 07:05:16;;;;;;;3.67;3.37;;;17.80;99.90;;;;;;5053540;28;20236;-72
2023/09/01 07:07:42;;;;;;;3.10;2.80;;;17.90;99.90;;;;;;5053607;28;20325;-71
2023/09/01 07:10:07;;;;;;;3.13;2.80;;;17.90;99.90;;;;;;5053734;28;20437;-71
2023/09/01 07:12:33;;;;;;;3.33;2.77;;;17.80;99.90;;;;;;5053456;28;20598;-71
2023/09/01 07:14:58;;;;;;;4.50;2.80;;;17.80;99.90;;;;;;5053383;28;20424;-71
2023/09/01 07:17:24;;;;;;;3.47;2.93;;;18.00;99.90;;;;;;5053402;28;20577;-72
2023/09/01 07:19:50;;;;;;;4.57;2.60;;;18.10;99.90;;;;;;5053514;28;20529;-71
2023/09/01 07:22:15;;;;;;;3.93;2.67;;;18.10;99.90;;;;;;5051510;28;20206;-71
2023/09/01 07:24:41;;;;;;;7.03;2.70;;;18.20;99.90;;;;;;5053255;28;20551;-71
2023/09/01 07:27:06;;;;;;;3.70;2.47;;;18.30;99.90;;;;;;5052952;28;20159;-72
2023/09/01 07:29:35;;;;;;;4.17;2.43;;;18.30;99.90;;;;;;5053241;28;20185;-73
2023/09/01 07:32:01;;;;;;;4.63;2.33;;;18.30;99.90;;;;;;5053115;28;20597;-72
2023/09/01 07:34:26;;;;;;;4.37;2.37;;;18.20;99.90;;;;;;5053254;28;20433;-72
2023/09/01 07:36:52;;;;;;;2.57;2.10;;;18.20;99.90;;;;;;5051889;28;20636;-73
2023/09/01 07:39:18;;;;;;;2.30;1.80;;;18.20;99.90;;;;;;5044466;28;20194;-72
2023/09/01 07:41:43;;;;;;;2.63;2.03;;;18.20;99.90;;;;;;5052644;28;20733;-72
2023/09/01 07:44:09;;;;;;;2.40;2.17;;;18.20;99.90;;;;;;5052662;28;20221;-73
2023/09/01 07:46:34;;;;;;;3.60;3.20;;;18.10;99.90;;;;;;5052546;28;20668;-72
2023/09/01 07:49:01;;;;;;;2.47;1.90;;;18.00;99.90;;;;;;5049335;28;20193;-72
2023/09/01 07:51:26;;;;;;;2.90;2.37;;;18.00;99.90;;;;;;5040106;28;20176;-72
2023/09/01 07:53:54;;;;;;;3.50;1.83;;;17.90;99.90;;;;;;5039790;28;20460;-70
2023/09/01 07:56:20;;;;;;;5.50;2.60;;;17.80;99.90;;;;;;5046424;28;20506;-72
2023/09/01 07:58:45;;;;;;;2.90;2.53;;;17.80;99.90;;;;;;5050728;28;20413;-70
2023/09/01 08:01:11;;;;;;;2.37;2.17;;;17.80;99.90;;;;;;5052616;28;20471;-70
2023/09/01 08:03:36;;;;;;;3.30;2.00;;;17.70;99.90;;;;;;5052668;28;20179;-70
2023/09/01 08:06:02;;;;;;;2.93;2.60;;;17.70;99.90;;;;;;5052242;28;20201;-71
2023/09/01 08:08:27;;;;;;;3.10;2.53;;;17.70;99.90;;;;;;5052579;28;20159;-71
2023/09/01 08:10:54;;;;;;;2.43;2.23;;;17.60;99.90;;;;;;5051245;28;20258;-70
2023/09/01 08:13:21;;;;;;;3.70;2.60;;;17.50;99.90;;;;;;5052389;28;20642;-70
2023/09/01 08:15:46;;;;;;;5.67;2.73;;;17.40;99.90;;;;;;5052065;28;20489;-71
2023/09/01 08:18:12;;;;;;;2.87;2.40;;;17.30;99.90;;;;;;5052338;28;20429;-72
2023/09/01 08:20:37;;;;;;;3.33;2.50;;;17.20;99.90;;;;;;5052273;28;20658;-70
2023/09/01 08:23:03;;;;;;;3.20;2.90;;;17.20;99.90;;;;;;5052250;28;20193;-72
2023/09/01 08:25:28;;;;;;;3.00;2.70;;;17.20;99.90;;;;;;5052148;28;20166;-71
2023/09/01 08:27:54;;;;;;;2.80;2.40;;;17.20;99.90;;;;;;5052130;28;20168;-71
2023/09/01 08:30:20;;;;;;;5.20;3.00;;;17.20;99.90;;;;;;5052244;28;20170;-71
2023/09/01 08:32:45;;;;;;;2.60;2.27;;;17.20;99.90;;;;;;5052065;28;20243;-71
2023/09/01 08:35:14;;;;;;;2.97;2.10;;;17.30;99.90;;;;;;5051923;28;20167;-71
2023/09/01 08:37:39;;;;;;;3.03;2.10;;;17.40;99.90;;;;;;5048970;28;20362;-71
2023/09/01 08:40:06;;;;;;;2.60;2.40;;;17.50;99.90;;;;;;5040009;28;20546;-72
2023/09/01 08:42:33;;;;;;;3.60;2.33;;;17.50;99.90;;;;;;5041944;28;20209;-73
2023/09/01 08:45:00;;;;;;;2.70;1.80;;;17.50;99.90;;;;;;5051639;28;20405;-73
2023/09/01 08:47:31;;;;;;;2.27;2.00;;;17.50;99.90;;;;;;5051986;28;20398;-73
2023/09/01 08:49:58;;;;;;;2.97;2.60;;;17.70;99.90;;;;;;5051472;28;20910;-73
2023/09/01 08:52:24;;;;;;;3.67;2.27;;;17.70;99.90;;;;;;5050544;28;20954;-70
2023/09/01 08:54:50;;;;;;;2.50;1.60;;;17.60;99.90;;;;;;5048464;28;20436;-73
2023/09/01 08:57:16;;;;;;;2.57;2.03;;;17.60;99.90;;;;;;5050142;28;20421;-73
2023/09/01 08:59:43;;;;;;;3.20;2.00;;;17.70;99.90;;;;;;5051715;28;20190;-71
2023/09/01 09:02:09;;;;;;;3.93;1.80;;;17.70;99.90;;;;;;5051721;28;20282;-72
2023/09/01 09:04:35;;;;;;;4.80;2.60;;;17.80;99.90;;;;;;5050608;28;20433;-71
2023/09/01 09:07:14;;;;;;;2.77;1.90;;;17.90;99.90;;;;;;5055754;28;20763;-70
2023/09/01 09:09:53;;;;;;;1.73;1.53;;;17.90;99.90;;;;;;5044900;28;20601;-73
2023/09/01 09:12:20;;;;;;;2.07;1.87;;;18.00;99.90;;;;;;5047204;28;20938;-73
2023/09/01 09:14:52;;;;;;;2.33;1.80;;;18.00;99.90;;;;;;5055630;28;20398;-72
2023/09/01 09:17:22;;;;;;;3.40;2.20;;;18.00;99.90;;;;;;5055455;28;20898;-72
2023/09/01 09:19:54;;;;;;;2.13;1.93;;;18.10;99.90;;;;;;5055716;28;20898;-71
2023/09/01 09:22:21;;;;;;;2.23;2.00;;;18.20;99.90;;;;;;5055864;28;21043;-71
2023/09/01 09:24:47;;;;;;;3.97;2.23;;;18.30;99.90;;;;;;5055594;28;20429;-70
2023/09/01 09:27:20;;;;;;;2.37;2.17;;;18.30;99.90;;;;;;5055353;28;20802;-73
2023/09/01 09:29:48;;;;;;;3.10;2.80;;;18.40;99.90;;;;;;5054311;28;20410;-71
2023/09/01 09:32:21;;;;;;;4.23;2.40;;;18.30;99.90;;;;;;5055422;28;20424;-71
2023/09/01 09:35:07;;;;;;;3.40;3.03;;;18.40;99.90;;;;;;5055410;28;20404;-70
2023/09/01 09:37:37;;;;;;;3.00;2.70;;;18.40;99.90;;;;;;5055389;28;20397;-70
2023/09/01 09:40:17;;;;;;;4.60;4.20;;;18.60;99.90;;;;;;5055273;28;20748;-71
2023/09/01 09:42:44;;;;;;;4.30;3.90;;;18.60;99.90;;;;;;5055138;28;20511;-71
2023/09/01 09:45:34;;;;;;;6.10;3.80;;;18.70;99.90;;;;;;5054994;28;20412;-72
2023/09/01 09:48:02;;;;;;;4.63;4.23;;;18.80;99.90;;;;;;5054682;28;20455;-73
2023/09/01 09:50:29;;;;;;;5.00;3.90;;;18.90;99.90;;;;;;5053954;28;20419;-72
2023/09/01 09:52:58;;;;;;;4.57;3.90;;;18.90;99.90;;;;;;5054916;28;20425;-73
2023/09/01 09:55:37;;;;;;;6.10;4.50;;;19.10;99.90;;;;;;5051364;28;20814;-71
2023/09/01 09:58:08;;;;;;;6.63;5.03;;;19.40;99.90;;;;;;5036568;28;20468;-73
2023/09/01 10:00:42;;;;;;;5.23;4.70;;;19.50;99.90;;;;;;5037436;28;20422;-73
2023/09/01 10:03:08;;;;;;;6.03;4.80;;;19.60;99.90;;;;;;5047208;28;20521;-73
2023/09/01 10:05:34;;;;;;;5.10;4.60;;;19.70;99.90;;;;;;5041887;28;20851;-72
2023/09/01 10:08:03;;;;;;;6.10;5.13;;;19.70;99.90;;;;;;5043855;28;20432;-73
2023/09/01 10:10:30;;;;;;;6.10;5.13;;;19.70;99.90;;;;;;5035558;28;20430;-73
2023/09/01 10:12:56;;;;;;;7.57;3.77;;;19.70;99.90;;;;;;5046673;28;20436;-73
2023/09/01 10:15:23;;;;;;;6.10;5.60;;;19.70;99.90;;;;;;5054111;28;20409;-73
2023/09/01 10:17:50;;;;;;;11.43;4.80;;;19.60;99.90;;;;;;5054483;28;20651;-73
2023/09/01 10:20:16;;;;;;;5.80;5.23;;;19.60;99.90;;;;;;5043335;28;20460;-73
2023/09/01 10:22:41;;;;;;;5.90;5.40;;;19.60;99.90;;;;;;5046036;28;20488;-73
2023/09/01 10:25:15;;;;;;;5.73;3.83;;;19.80;99.90;;;;;;5045804;28;20624;-72
2023/09/01 10:28:01;;;;;;;4.40;3.50;;;20.00;99.90;;;;;;5054365;28;20574;-73
2023/09/01 10:30:27;;;;;;;6.03;4.10;;;20.50;99.90;;;;;;5046148;28;20993;-72
2023/09/01 10:33:08;;;;;;;4.53;3.53;;;20.80;99.90;;;;;;5053641;28;21025;-73
2023/09/01 10:35:45;;;;;;;5.80;3.27;;;21.10;99.90;;;;;;5054110;28;20765;-73
2023/09/01 10:38:29;;;;;;;4.33;3.50;;;21.50;99.90;;;;;;5047706;28;21099;-72
2023/09/01 10:40:55;;;;;;;3.23;2.63;;;21.90;99.90;;;;;;5048502;28;20432;-73
2023/09/01 10:43:49;;;;;;;4.67;4.17;;;22.20;99.90;;;;;;5054117;28;20430;-72
2023/09/01 10:46:15;;;;;;;3.30;3.00;;;22.30;99.90;;;;;;5044807;28;20863;-73
2023/09/01 10:48:51;;;;;;;2.90;2.60;;;22.70;99.90;;;;;;5051654;28;20401;-73
2023/09/01 10:51:24;;;;;;;3.63;3.33;;;22.90;99.90;;;;;;5053794;28;20433;-73
2023/09/01 10:53:55;;;;;;;3.23;2.93;;;22.90;99.90;;;;;;5053876;28;20440;-70
2023/09/01 10:56:22;;;;;;;3.30;2.90;;;23.10;99.90;;;;;;5053572;28;20428;-73
2023/09/01 10:58:50;;;;;;;6.13;4.20;;;23.30;99.90;;;;;;5053852;28;20497;-73
2023/09/01 11:01:24;;;;;;;6.87;3.70;;;23.40;99.90;;;;;;5053643;28;20475;-73
2023/09/01 11:03:50;;;;;;;3.90;3.10;;;23.30;99.90;;;;;;5053746;28;20519;-72
2023/09/01 11:06:16;;;;;;;2.80;2.60;;;23.30;99.90;;;;;;5053100;28;20497;-73
2023/09/01 11:08:55;;;;;;;2.53;2.33;;;23.20;99.90;;;;;;5052384;28;20271;-72
2023/09/01 11:11:21;;;;;;;3.20;3.00;;;23.00;99.90;;;;;;5053628;28;20401;-74
2023/09/01 11:13:55;;;;;;;3.43;2.87;;;22.80;99.90;;;;;;5053545;28;20498;-73
2023/09/01 11:16:20;;;;;;;2.50;2.30;;;22.60;99.90;;;;;;5051464;28;20174;-72
2023/09/01 11:18:58;;;;;;;3.40;2.80;;;22.40;99.90;;;;;;5043400;28;20417;-74
2023/09/01 11:21:24;;;;;;;4.90;3.43;;;22.40;99.90;;;;;;5044966;28;20203;-73
2023/09/01 11:23:49;;;;;;;3.87;3.47;;;22.20;99.90;;;;;;5051989;28;20567;-73
2023/09/01 11:26:15;;;;;;;3.33;3.03;;;22.10;99.90;;;;;;5052913;28;20258;-73
2023/09/01 11:28:41;;;;;;;4.93;3.17;;;21.90;99.90;;;;;;5046431;28;20183;-73
2023/09/01 11:31:07;;;;;;;4.43;4.03;;;21.50;99.90;;;;;;5045461;28;20164;-72
2023/09/01 11:33:34;;;;;;;4.00;3.10;;;21.20;99.90;;;;;;5049493;28;20236;-73
2023/09/01 11:36:10;;;;;;;3.53;2.97;;;21.00;99.90;;;;;;5048375;28;20176;-73
2023/09/01 11:38:37;;;;;;;3.20;2.87;;;21.00;99.90;;;;;;5033508;28;20418;-72
2023/09/01 11:41:08;;;;;;;4.33;2.30;;;20.90;99.90;;;;;;5042024;28;20454;-73
2023/09/01 11:43:35;;;;;;;3.30;1.87;;;20.90;99.90;;;;;;5041204;28;20430;-73
2023/09/01 11:46:00;;;;;;;2.77;1.97;;;20.90;99.90;;;;;;5052538;28;20413;-72
2023/09/01 11:48:30;;;;;;;1.87;1.40;;;20.90;99.90;;;;;;5052232;28;20417;-71
2023/09/01 11:50:58;;;;;;;1.50;1.40;;;20.90;99.90;;;;;;5048787;28;20634;-72
2023/09/01 11:53:24;;;;;;;1.63;1.53;;;20.90;99.90;;;;;;5052630;28;20418;-72
2023/09/01 11:55:50;;;;;;;1.20;1.10;;;20.90;99.90;;;;;;5052419;28;20918;-72
2023/09/01 11:58:16;;;;;;;1.50;1.20;;;20.90;99.90;;;;;;5052735;28;20914;-72
2023/09/01 12:00:42;;;;;;;3.97;1.37;;;21.00;99.90;;;;;;5052759;28;20401;-72
2023/09/01 12:03:08;;;;;;;3.40;1.87;;;21.10;99.90;;;;;;5052461;28;20229;-72
2023/09/01 12:05:34;;;;;;;2.10;1.67;;;21.10;99.90;;;;;;5052329;28;20903;-71
2023/09/01 12:08:02;;;;;;;3.07;1.40;;;21.10;99.90;;;;;;5052451;28;20421;-72
2023/09/01 12:10:28;;;;;;;2.50;2.00;;;21.20;99.90;;;;;;5052506;28;20486;-73
2023/09/01 12:13:09;;;;;;;2.40;1.63;;;21.20;99.90;;;;;;5052402;28;20480;-71
2023/09/01 12:15:56;;;;;;;5.73;1.37;;;21.50;99.90;;;;;;5052152;28;20539;-73
2023/09/01 12:18:29;;;;;;;3.10;1.33;;;21.70;99.90;;;;;;5052305;28;20449;-71
2023/09/01 12:20:55;;;;;;;2.03;1.57;;;22.00;99.90;;;;;;5052268;28;20500;-73
2023/09/01 12:23:29;;;;;;;1.97;1.30;;;22.30;99.90;;;;;;5052250;28;21024;-71
2023/09/01 12:25:55;;;;;;;1.73;1.37;;;22.70;99.90;;;;;;5052001;28;20155;-72
2023/09/01 12:28:21;;;;;;;3.87;1.20;;;23.20;99.90;;;;;;5052193;28;20394;-72
2023/09/01 12:30:46;;;;;;;1.93;1.13;;;23.80;99.90;;;;;;5052261;28;20495;-72
2023/09/01 12:33:12;;;;;;;2.50;1.27;;;24.40;99.90;;;;;;5052132;28;20211;-72
2023/09/01 12:35:40;;;;;;;1.23;0.97;;;24.70;99.90;;;;;;5051969;28;20198;-72
2023/09/01 12:38:05;;;;;;;3.20;1.73;;;25.20;99.90;;;;;;5050376;28;20719;-71
2023/09/01 12:40:31;;;;;;;1.53;1.20;;;25.60;99.90;;;;;;5042510;28;20446;-72
2023/09/01 12:42:56;;;;;;;1.37;1.10;;;25.70;99.90;;;;;;5043193;28;20198;-72
2023/09/01 12:45:22;;;;;;;1.47;1.30;;;25.70;99.90;;;;;;5051729;28;20257;-73
2023/09/01 12:47:47;;;;;;;1.10;1.00;;;26.30;99.90;;;;;;5051798;28;20163;-73
2023/09/01 12:50:13;;;;;;;1.43;1.20;;;27.70;99.90;;;;;;5051882;28;20178;-72
2023/09/01 12:52:38;;;;;;;1.50;1.30;;;27.50;99.90;;;;;;5051887;28;20194;-72
2023/09/01 12:55:04;;;;;;;2.10;1.50;;;27.10;99.90;;;;;;5051682;28;20175;-73
2023/09/01 12:57:30;;;;;;;1.30;0.90;;;26.70;99.90;;;;;;5051915;28;20171;-73
2023/09/01 12:59:55;;;;;;;1.60;1.00;;;26.40;99.90;;;;;;5051866;28;20247;-73
2023/09/01 13:02:22;;;;;;;4.50;1.27;;;26.10;99.90;;;;;;5048796;28;20212;-73